KSTC/STC METAR and TAF weather

Enter ICAO airport designator
Station Type Date Time Source
KSTC METAR 2019/05/19 19:53 UTC NOAA

KSTC 191953Z AUTO 02014G27KT 10SM BKN019 OVC026 04/01 A2987 RMK AO2 PK WND 02035/1920 RAE35 SLP130 P0000 T00390011


Station Type Date Time Source
KSTC Decoded METAR 2019/05/19 19:53 UTC NOAA

ST. CLOUD REGIONAL AIRPORT, MN, United States (KSTC) 45-33N 094-03W
May 19, 2019 - 03:53 PM EDT / 2019.05.19 1953 UTC
Wind: from the NNE (020 degrees) at 16 MPH (14 KT) gusting to 31 MPH (27 KT):0
Visibility: 10 mile(s):0
Sky conditions: overcast
Precipitation last hour: A trace
Temperature: 39.0 F (3.9 C)
Dew Point: 34.0 F (1.1 C)
Relative Humidity: 81%
Pressure (altimeter): 29.87 in. Hg (1011 hPa)
ob: KSTC 191953Z AUTO 02014G27KT 10SM BKN019 OVC026 04/01 A2987 RMK AO2 PK WND 02035/1920 RAE35 SLP130 P0000 T00390011
cycle: 20

Station Type Date Time Source
KSTC TAF 2019/05/19 18:24 UTC NOAA

TAF KSTC 191721Z 1918/2018 02016G28KT 5SM -RASN BR SCT008 OVC012
FM192200 01013G25KT 6SM -RASN BR OVC020
FM200100 35009KT P6SM VCSH OVC030
FM200200 34007KT P6SM BKN070
FM200600 31005KT P6SM SCT180

Example: see airport list